Observations for MANCHESTER INTL, United Kingdom (EGCC)

EGCC 231050Z AUTO 18006KT 120V230 9999 OVC012 13/12 Q1014 NOSIG 
EGCC 231020Z AUTO 17005KT 120V220 9999 OVC010 13/11 Q1014 TEMPO SCT010  
EGCC 230950Z AUTO VRB03KT 6000 -RA OVC015 12/11 Q1014 BECMG BKN014  
EGCC 230920Z AUTO 18004KT 130V220 9999 BKN018 OVC045 12/11 Q1014 BECMG BKN010   
EGCC 230850Z AUTO 18006KT 130V210 9999 SCT008 BKN020 BKN027 12/10 Q1014 BECMG BKN010
EGCC 230820Z AUTO 17005KT 110V210 9999 FEW011 12/10 Q1014 BECMG BKN014  
EGCC 230750Z AUTO VRB04KT 9999 NCD 11/10 Q1014 NOSIG
EGCC 230720Z AUTO 16004KT 090V250 9999 BKN035 11/10 Q1014 NOSIG 
EGCC 230650Z AUTO VRB04KT 9999 -RA BKN041 11/09 Q1014 TEMPO RA  
EGCC 230620Z AUTO VRB03KT 9999 -RA FEW044 11/09 Q1014 TEMPO RA  
EGCC 230550Z AUTO 18005KT 140V240 9999 -RA NCD 11/09 Q1014 NOSIG
EGCC 230520Z AUTO 19006KT 140V220 9999 BKN038 11/09 Q1014 TEMPO BKN014  
EGCC 230450Z AUTO VRB03KT 9999 SCT031 OVC037 11/09 Q1015 NOSIG  
EGCC 230420Z AUTO VRB03KT 9999 OVC034 10/09 Q1015 NOSIG 
EGCC 230350Z AUTO 18004KT 130V230 9999 SCT039 10/08 Q1015 NOSIG 
EGCC 230320Z AUTO 18004KT 120V210 9999 SCT033 BKN040 OVC048 10/08 Q1015 NOSIG   
EGCC 230250Z AUTO 18004KT 120V210 9999 BKN023 OVC037 10/08 Q1015 NOSIG  
EGCC 230220Z AUTO 19005KT 9999 BKN028 OVC045 10/08 Q1015 NOSIG  
EGCC 230150Z AUTO 20005KT 170V230 9999 BKN044 08/07 Q1015 NOSIG 
EGCC 230120Z AUTO VRB03KT 9999 BKN046 08/07 Q1015 NOSIG 
EGCC 230050Z AUTO VRB02KT 9999 SCT049 09/08 Q1016 NOSIG 
EGCC 230020Z AUTO VRB03KT 9999 NCD 09/08 Q1015 NOSIG
EGCC 222350Z AUTO VRB02KT 9999 BKN043 10/09 Q1015 NOSIG 
EGCC 222320Z AUTO VRB02KT 9999 FEW020 BKN036 10/09 Q1016 NOSIG  
EGCC 222250Z AUTO VRB03KT 9000 -RA FEW008 BKN014 OVC036 10/09 Q1016 NOSIG   
EGCC 222220Z AUTO 23005KT 9999 SCT018 OVC033 10/09 Q1016 NOSIG  
EGCC 222150Z AUTO 24005KT 9999 FEW020 SCT024 OVC034 10/09 Q1016 NOSIG   
EGCC 222120Z AUTO 24005KT 9999 SCT009 BKN019 OVC027 10/09 Q1016 TEMPO BKN009
EGCC 222050Z AUTO 25007KT 9999 BKN010 BKN017 10/09 Q1015 RERA TEMPO SCT010  
EGCC 222020Z AUTO 23004KT 2500 RA SCT017 BKN024 BKN028 10/08 Q1015  
EGCC 221950Z AUTO 22004KT 9999 BKN034 10/07 Q1015 NOSIG 
EGCC 221920Z AUTO 25006KT 9999 NCD 10/07 Q1015 NOSIG
EGCC 221850Z AUTO 25007KT 9999 NCD 10/07 Q1015 NOSIG
EGCC 221820Z 27009KT 9999 BKN044 11/07 Q1014
EGCC 221750Z 27006KT 220V290 9999 -SHRA FEW020 SCT048 11/07 Q1014 NOSIG 
EGCC 221720Z 27008KT 9999 -SHRA SCT048 11/05 Q1014 NOSIG
EGCC 221650Z 28010KT 9999 FEW045 11/05 Q1014 NOSIG  
EGCC 221620Z 29013KT 9999 FEW042 11/05 Q1013 NOSIG  
EGCC 221550Z 30013KT 9999 FEW035 SCT045 11/05 Q1013 NOSIG   
EGCC 221520Z 29013KT 9999 VCSH FEW036 SCT048 11/05 Q1013 NOSIG  
EGCC 221450Z 29015KT 9999 VCSH FEW028 BKN046 11/06 Q1012 NOSIG  
EGCC 221420Z 28017KT 9999 VCSH FEW028 BKN042 11/05 Q1012 NOSIG  
EGCC 221350Z 27018KT 9999 BKN028 11/06 Q1012 NOSIG  
EGCC 221320Z 28022KT 9999 FEW026 BKN042 11/05 Q1012 NOSIG   
EGCC 221250Z 28017KT 220V290 9999 VCSH BKN028 11/06 Q1011 NOSIG 
EGCC 221220Z AUTO 27020KT 9999 BKN028 OVC034 11/06 Q1011 NOSIG  
EGCC 221150Z 27019G29KT 9999 -SHRA FEW019 BKN031 11/06 Q1010 NOSIG  
EGCC 221120Z 27019KT 9999 VCSH FEW021 BKN026 11/06 Q1010 NOSIG  
EGCC 221050Z 28017KT 9999 6000E -SHRA BKN021 10/07 Q1010 RERA NOSIG 
EGCC 221020Z AUTO 27016KT 4900 RA BKN017 BKN025 OVC035 09/07 Q1010 BECMG 9999 NSW